Résultats de la compétition "Moyenne distance avant la Nationale NE Dijon 27/03/2010" du 27-03-2010 organisée par le club 2109
     
  Télécharger le fichier CSV.  
     
     

 Circuit "D"

Licence Nom Prénom Temps CN
précédent
Score sur
la course
Différence
1843BOUSSEREtienne0:19:4760896334+245
15979POIROTDelphine0:20:3143636108+1745
11307BEAUVISAGELauriane0:23:1252905401+111
3312CORDIERJacques0:23:2149255367+442
1583TAILLANDIERGuy0:23:5553625239-123
922PREVOSTPascale0:24:0956995189-510
7672DEVRIEUXNais0:25:4541554866+711
16756PONCETJ-Pierre0:25:5047944851+57
7045LOTERIELaurine0:26:1343744780+406
7711DENAIXLou0:26:2738904738+848
18432HUMMEL-AZAISMargaux0:27:1436294601+972
3323SCHMITTDenys0:27:1846554590-65
703ABISSEJacques0:27:3942564532+276
1509AUBRYMaurice0:27:4243724524+152
2558VOGTClaude0:27:4443834518+135
1487MARCHESINSylvie0:27:5248424497-345
2400BONNETChristine0:28:1847534428-325
6706LETOUBLONAndrea0:28:2341554415+260
3651VAGNERChristine0:28:2547854410-375
8868BRAMASRenee0:28:3040874397+310
1270ANTOINEAlain0:28:3351824389-793
3163COLOMBETChristian0:28:3339374389+452
813COMBETAnnie0:28:4139944369+375
2878PATURETBertrand0:28:4444974361-136
20200LEPERQUEOphelie0:28:5232174341+1124
20246MONNERIECharlotte0:29:0338084314+506
9472JOUZEAUGeorges0:29:0942504299+49
2712VUILLETChristian0:29:1348374289-548
2857LEROUXJacques0:29:3546634236-427
4317MASSONMichel0:29:4531974212+1015
5597EJSMONTJean0:30:1146664152-514
7788MORLONLouise0:30:2030594131+1072
15479MORELEugenie0:30:2340364124+88
16205HUMBERTCLAUDEJ-Paul0:30:2532244120+896
21323VANOVERBERGHECamille0:30:4626314073+1442
2401DEVILLENelly0:30:4644024073-329
1673ANNERoger0:30:5046534064-589
19219RIETHMULLERMathilde0:30:5135444062+518
989ROSINIVeronique0:31:1626904008+1318
17406CAMPBELLJane0:31:2445033991-512
930SIMONETJean0:31:5041363936-200
571LEPETITMichel0:31:5337763930+154
841GATYDaniele0:32:0141203914-206
2530LOCUSSERobert0:32:0541613906-255
1178LEMERCIERBernard0:32:1436213888+267
14575AMETMarion0:32:2029163876+960
3288ARNOULDChantal0:32:2334563870+414
1086ROBERTChristian0:32:4349593830-1129
933SOLMichel0:32:5843973801-596
10909COLINCamille0:33:0132943795+501
1993PERICHONBernard0:33:1360013773-2228
21435DEFIXAnne Claire0:33:3227693737+968
740RUAUDAlain0:33:4337103717+7
1276ANTOINERegis0:33:4743073709-598
1672ANNEBrigitte0:34:0334223680+258
4391DODINYves0:34:0432083678+470
2666ENARDYves0:34:1603657N/A
14738BIHELJulia0:34:2139053648-257
3108GANZITTIAlexandre0:34:2350963645-1451
13752VILLEDIEUMartine0:34:2438183643-175
19345CHARDOTJulia0:34:4927693599+830
19238CAMASMandye0:35:0331033575+472
20572GUILMAINMelanie0:35:2330313542+511
5533THIEBAULTJ-Philippe0:35:3534563522+66
8928MASCARELLHenri0:35:4548383505-1333
12056SCHMITT-POUPARDFlorence0:35:5533163489+173
9477MICHONAnnie0:35:5926863482+796
2664ENARDMonique0:36:1503457N/A
2263LEMBLEAndre0:36:1740713454-617
1087ROBERTMartine0:36:2637323439-293
12102BOUVERETMichelle0:36:3232013430+229
2457CHEVRYArmand0:36:3832663421+155
2404HODSONMichael0:36:3929413419+478
2006TESSIERDaniel0:36:5638023393-409
10639BOULANGERIsabelle0:37:0233353384+49
1399HERMETKrystell0:37:04N/A3381N/A
2368BENACEKVaclav0:37:2741123346-766
3674CHALOPINCatherine0:37:3934713328-143
16403EUZENJ-Paul0:37:4930993314+215
22319JOLIVEAUElodie0:37:58N/A3301N/A
10077POURREMarion0:37:5835843301-283
3302JEANPIERREM-Therese0:38:0131283296+168
6491ROBERTFrancoise0:38:0542643290-974
3356CHARIAUMichel0:38:1334063279-127
14245RICHARDNicole0:38:1331133279+166
8108LELOUPAnouk0:38:1853763272-2104
20439GOLECZoé0:38:2330003265+265
1938LEFRANCOISGerard0:38:3136853253-432
7182BERGERM-Jose0:38:3429253249+324
20170MAIRECandice0:38:5123283225+897
5508DEUBELBEISSAlain0:38:5437213221-500
7574OUDINM-Reine0:39:1439203194-726
2411ROLLETDaniel0:39:1531483193+45
1381DIEUDONNERoland0:39:4036293159-470
4378PAOLUCCIChristiane0:40:2032683107-161
21968HABAUZITYannick0:40:5230193066+47
2524DUVALJacques0:40:5528323063+231
2952ARMBRUSTERMarie0:40:5734623060-402
20590CRESPINAline0:41:0426673051+384
6779MAKOVICKAElsa0:41:3637573012-745
2557VOGTChristiane0:42:0136492982-667
352MULLERRaymond0:42:3825842939+355
2716HABERKORNDidier0:42:5240662923-1143
2679KIEFFERJ-Paul0:43:0237602912-848
4377PAOLUCCIRene-Claude0:43:2131722891-281
22904LEPAGEViolaine0:43:26N/A2885N/A
20020PELLETIERChristine0:44:0012902848+1558
15411ASTRADEBlandine0:44:0419992844+845
2885LECOYERAnnick0:45:1727142767+53
701ABISSEGisele0:45:2933702755-615
2539MOUCHETTERegine0:46:2935672696-871
12060PITAVALSylvie0:46:4230452683-362
2182PROSTGisele0:47:4328272626-201
4389THIEBAULDGeorges0:48:1233642600-764
2555RIAULTBernard0:48:3439262580-1346
14002DUBOISSylvie0:48:5823122559+247
2689RENARDChristine0:49:1315932546+953
2445RIFFARDJ-Claude0:49:2932772532-745
363THIERRY-FISCHERChri0:49:5130032514-489
370WOEHRLEGilbert0:50:3026182481-137
2674GUETINMichel0:50:3925632474-89
2474LEMERCIERJocelyne0:50:4027432473-270
2446RIFFARDM-Lucie0:50:5326112463-148
4671POGUPaulette0:51:4427972422-375
2181PROSTDaniel0:51:4527162421-295
7204CURTDaniel0:52:1723602397+37
16129THIEBAUTEvelyne0:53:3329432340-603
4392DODINGenevieve0:53:3321242340+216
22651ARROQUIPhilippe0:54:0202319N/A
15276VERDINAlix0:54:0926142314-300
931SIMONETMarie0:54:1722562308+52
15324ETIENNEBernadette0:54:2624582302-156
12377DENISMartine0:55:1029452271-674
2387SUTTEROdile0:55:1825422266-276
3717GEROMEYDominique0:55:2021702265+95
11104VELLATChristine0:55:3019702258+288
739RUAUDAgnes0:55:5221582243+85
2547DESAINTJANClaude0:57:0627902195-595
2004TESSIERAriane0:57:1124922191-301
2680KIEFFERMireille0:57:5027852167-618
2888MOULIEREM-Bernadett0:59:3431522104-1048
4597CERETMartine1:01:2631402040-1100
3185PASCAUDClaire1:02:0522852018-267
2413ROLLETM-Madeleine1:02:2026032010-593
15296GREVETClaudie1:03:3521721971-201
368VESCOVOOdile1:08:1516491836+187
2546DESAINTJANAlice1:10:2222661781-485
4490THIEBAULTM-Paule1:13:1819291710-219
8954BASTIEN-FATHNicole1:15:4621941654-540
340FISCHERM-Dominique1:19:4019941573-421
16987DINETRobert1:24:4201479N/A
2660BROSSAUDGabriel1:36:167661302+536
23056BERIONMarie-josephe1:59:52N/A1045N/A
1380DIEUDONNEMadeleineN/A40250-4025
20410FALCOZEstelleN/A23430-2343
15894LUDEWIG-JAMESCarolN/A21280-2128
15832CHARONCatherineN/AN/A0N/A
22693PERRINManonN/AN/A0N/A

  Indice de confiance du circuit (moyenne des différences entre CN et score sur la course des 3 à 10 premiers) : 53






 Retour